Аэропорт: Жуляны. Киев

ICAO: UKKK

METAR:
2019/05/26 14:00
UKKK 261400Z 31007G12MPS CAVOK 22/09 Q1010 R26/CLRD70 NOSIG
METAR:
2019/05/26 12:09
TAF TAF UKKK 261102Z 2612/2712 27005G11MPS 9999 BKN040 TX26/2712Z TN13/2703Z 
      TEMPO 2612/2618 29008G14MPS SCT020CB PROB40 
      TEMPO 2612/2618 VRB10G17MPS 1500 TSRAGR SQ SCT004 BKN015CB 
      BECMG 2618/2620 24003G08MPS 
      TEMPO 2620/2706 1600 BR SCT005